createdAt,value
2019-05-06T00:00:16.789Z,18.7
2019-05-06T00:01:19.113Z,18.7
2019-05-06T00:02:21.527Z,18.6
2019-05-06T00:03:27.673Z,18.7
2019-05-06T00:04:29.837Z,18.8
2019-05-06T00:05:33.994Z,18.7
2019-05-06T00:06:37.281Z,18.7
2019-05-06T00:07:39.883Z,18.7
2019-05-06T00:08:44.518Z,18.7
2019-05-06T00:09:46.393Z,18.6
2019-05-06T00:10:49.207Z,18.9
2019-05-06T00:11:51.347Z,18.7
2019-05-06T00:12:56.173Z,18.7
2019-05-06T00:13:58.593Z,18.7
2019-05-06T00:15:01.013Z,18.7
2019-05-06T00:16:05.398Z,18.7
2019-05-06T00:17:07.821Z,18.7
2019-05-06T00:18:09.973Z,18.8
2019-05-06T00:19:14.383Z,18.8
2019-05-06T00:20:16.805Z,18.7
2019-05-06T00:21:19.233Z,18.7
2019-05-06T00:22:23.623Z,18.7
2019-05-06T00:23:26.577Z,18.7
2019-05-06T00:24:28.721Z,18.7
2019-05-06T00:25:30.601Z,18.7
2019-05-06T00:26:35.185Z,18.7
2019-05-06T00:27:37.343Z,18.7
2019-05-06T00:28:39.473Z,18.7
2019-05-06T00:29:43.821Z,18.7
2019-05-06T00:30:48.289Z,18.9
2019-05-06T00:31:50.881Z,18.8
2019-05-06T00:32:55.898Z,18.7
2019-05-06T00:33:58.033Z,18.8
2019-05-06T00:35:00.659Z,18.7
2019-05-06T00:37:08.753Z,18.8
2019-05-06T00:38:10.893Z,18.7
2019-05-06T00:39:15.453Z,18.7
2019-05-06T00:40:17.321Z,18.7
2019-05-06T00:41:19.196Z,18.9
2019-05-06T00:42:21.813Z,18.7
2019-05-06T00:43:26.847Z,18.7
2019-05-06T00:44:29.179Z,18.7
2019-05-06T00:45:31.295Z,18.6
2019-05-06T00:46:37.467Z,18.8
2019-05-06T00:47:39.864Z,18.7
2019-05-06T00:48:41.994Z,18.8
2019-05-06T00:49:48.287Z,18.8
2019-05-06T00:50:51.009Z,18.8
2019-05-06T00:51:55.617Z,18.7
2019-05-06T00:52:58.381Z,18.8
2019-05-06T00:54:00.463Z,18.7
2019-05-06T00:55:04.082Z,18.7
2019-05-06T00:56:06.603Z,18.7
2019-05-06T00:57:08.754Z,18.8
2019-05-06T00:58:10.912Z,18.8
2019-05-06T00:59:17.349Z,18.7
2019-05-06T01:00:20.571Z,18.7
2019-05-06T01:02:28.403Z,18.7
2019-05-06T01:03:31.024Z,18.7
2019-05-06T01:04:37.173Z,18.7
2019-05-06T01:05:39.333Z,18.8
2019-05-06T01:06:43.852Z,18.8
2019-05-06T01:07:47.120Z,18.9
2019-05-06T01:08:49.253Z,18.8
2019-05-06T01:09:54.003Z,18.7
2019-05-06T01:10:57.527Z,18.7
2019-05-06T01:11:59.679Z,18.7
2019-05-06T01:13:04.063Z,18.7
2019-05-06T01:14:06.356Z,18.7
2019-05-06T01:15:08.793Z,18.7
2019-05-06T01:16:11.225Z,18.7
2019-05-06T01:17:13.977Z,18.7
2019-05-06T01:18:17.029Z,18.8
2019-05-06T01:19:19.810Z,18.7
2019-05-06T01:20:21.949Z,18.7
2019-05-06T01:21:26.661Z,18.7
2019-05-06T01:22:28.803Z,18.7
2019-05-06T01:23:31.233Z,18.7
2019-05-06T01:24:35.613Z,18.8
2019-05-06T01:25:37.759Z,18.7
2019-05-06T01:26:40.180Z,18.7
2019-05-06T01:27:44.853Z,18.7
2019-05-06T01:28:47.885Z,18.7
2019-05-06T01:29:50.029Z,18.7
2019-05-06T01:30:54.073Z,18.7
2019-05-06T01:31:57.111Z,18.7
2019-05-06T01:34:06.649Z,18.7
2019-05-06T01:35:08.992Z,18.7
2019-05-06T01:36:11.120Z,18.7
2019-05-06T01:37:17.063Z,18.7
2019-05-06T01:38:19.483Z,18.7
2019-05-06T01:39:21.649Z,18.8
2019-05-06T01:40:25.953Z,18.8
2019-05-06T01:41:28.103Z,18.6
2019-05-06T01:42:30.473Z,18.7
2019-05-06T01:43:37.982Z,18.8
2019-05-06T01:44:39.861Z,18.8
2019-05-06T01:45:43.897Z,18.7
2019-05-06T01:46:45.771Z,18.7
2019-05-06T01:47:48.455Z,18.6
2019-05-06T01:48:50.582Z,18.7
2019-05-06T01:49:55.303Z,18.8
2019-05-06T01:50:57.452Z,18.8
2019-05-06T01:51:59.871Z,18.8
2019-05-06T01:53:02.284Z,18.8
2019-05-06T01:54:06.670Z,18.8
2019-05-06T01:55:08.533Z,18.7
2019-05-06T01:56:11.533Z,18.9
2019-05-06T01:57:16.025Z,18.7
2019-05-06T01:58:19.070Z,18.8
2019-05-06T01:59:20.935Z,18.8
2019-05-06T02:00:25.550Z,18.7
2019-05-06T02:01:27.999Z,18.7
2019-05-06T02:02:31.025Z,18.7
2019-05-06T02:03:35.794Z,18.7
2019-05-06T02:04:37.936Z,18.8
2019-05-06T02:05:40.081Z,18.7
2019-05-06T02:06:44.362Z,18.7
2019-05-06T02:07:46.771Z,18.6
2019-05-06T02:08:49.203Z,18.8
2019-05-06T02:09:51.076Z,18.7
2019-05-06T02:10:55.206Z,18.8
2019-05-06T02:11:57.628Z,18.7
2019-05-06T02:13:00.772Z,18.6
2019-05-06T02:14:06.903Z,18.7
2019-05-06T02:15:09.313Z,18.7
2019-05-06T02:16:11.435Z,18.7
2019-05-06T02:17:15.967Z,18.8
2019-05-06T02:18:18.381Z,18.8
2019-05-06T02:19:20.717Z,18.7
2019-05-06T02:20:25.214Z,18.8
2019-05-06T02:21:27.631Z,18.7
2019-05-06T02:22:30.973Z,18.8
2019-05-06T02:23:35.287Z,18.7
2019-05-06T02:24:38.311Z,18.7
2019-05-06T02:25:40.734Z,18.8
2019-05-06T02:26:44.222Z,18.7
2019-05-06T02:27:46.814Z,18.8
2019-05-06T02:28:49.231Z,18.7
2019-05-06T02:29:51.657Z,18.7
2019-05-06T02:30:56.241Z,18.7
2019-05-06T02:33:04.663Z,18.8
2019-05-06T02:34:06.825Z,18.8
2019-05-06T02:35:09.261Z,18.8
2019-05-06T02:36:17.063Z,18.7
2019-05-06T02:37:19.680Z,18.7
2019-05-06T02:39:26.975Z,18.8
2019-05-06T02:40:32.814Z,18.8
2019-05-06T02:41:35.393Z,18.7
2019-05-06T02:42:37.564Z,18.7
2019-05-06T02:43:43.255Z,18.7
2019-05-06T02:44:45.765Z,18.8
2019-05-06T02:45:48.173Z,18.7
2019-05-06T02:47:55.310Z,18.6
2019-05-06T02:48:57.734Z,18.8
2019-05-06T02:49:59.888Z,18.8
2019-05-06T02:51:05.832Z,18.8
2019-05-06T02:52:07.980Z,18.8
2019-05-06T02:54:15.900Z,18.8
2019-05-06T02:55:17.488Z,18.8
2019-05-06T02:56:20.205Z,18.8
2019-05-06T02:57:25.881Z,18.8
2019-05-06T02:58:28.903Z,18.7
2019-05-06T02:59:35.325Z,18.8
2019-05-06T03:00:37.743Z,18.9
2019-05-06T03:03:49.860Z,18.7
2019-05-06T03:04:55.810Z,18.7
2019-05-06T03:05:58.469Z,18.8
2019-05-06T03:08:05.589Z,18.7
2019-05-06T03:09:08.024Z,18.7
2019-05-06T03:10:14.366Z,18.8
2019-05-06T03:11:16.654Z,18.8
2019-05-06T03:12:18.804Z,18.6
2019-05-06T03:13:24.958Z,18.7
2019-05-06T03:14:27.105Z,18.6
2019-05-06T03:15:33.522Z,18.6
2019-05-06T03:16:35.715Z,18.7
2019-05-06T03:17:37.874Z,18.7
2019-05-06T03:18:43.104Z,18.6
2019-05-06T03:19:46.365Z,18.7
2019-05-06T03:20:48.226Z,18.7
2019-05-06T03:23:26.322Z,18.7
2019-05-06T03:24:28.362Z,18.6
2019-05-06T03:25:34.987Z,18.6
2019-05-06T03:26:37.733Z,18.6
2019-05-06T03:27:39.906Z,18.5
2019-05-06T03:28:47.109Z,18.6
2019-05-06T03:29:49.820Z,18.6
2019-05-06T03:30:57.455Z,18.6
2019-05-06T03:31:59.897Z,18.6
2019-05-06T03:37:26.322Z,18.6
2019-05-06T03:38:28.863Z,18.7
2019-05-06T03:39:35.865Z,18.6
2019-05-06T03:41:44.113Z,18.6
2019-05-06T03:42:46.527Z,18.6
2019-05-06T03:43:48.944Z,18.6
2019-05-06T03:45:56.344Z,18.6
2019-05-06T03:46:58.763Z,18.6
2019-05-06T03:48:06.562Z,18.6
2019-05-06T03:49:08.735Z,18.5
2019-05-06T03:50:15.642Z,18.5
2019-05-06T03:51:17.782Z,18.5
2019-05-06T03:52:22.845Z,18.6
2019-05-06T03:53:25.670Z,18.5
2019-05-06T03:54:28.283Z,18.6
2019-05-06T03:55:33.926Z,18.5
2019-05-06T03:56:36.315Z,18.5
2019-05-06T03:57:38.725Z,18.6
2019-05-06T03:58:45.868Z,18.6
2019-05-06T03:59:48.498Z,18.5
2019-05-06T04:00:55.393Z,18.5
2019-05-06T04:01:57.735Z,18.6
2019-05-06T04:04:06.049Z,18.4
2019-05-06T04:05:08.495Z,18.4
2019-05-06T04:06:15.464Z,18.5
2019-05-06T04:07:17.625Z,18.5
2019-05-06T04:08:24.086Z,18.5
2019-05-06T04:09:27.275Z,18.5
2019-05-06T04:10:29.655Z,18.4
2019-05-06T04:11:36.983Z,18.5
2019-05-06T04:12:39.403Z,18.5
2019-05-06T04:13:45.828Z,18.5
2019-05-06T04:14:49.204Z,18.4
2019-05-06T04:15:56.119Z,18.5
2019-05-06T04:16:58.550Z,18.5
2019-05-06T04:19:06.924Z,18.5
2019-05-06T04:20:09.358Z,18.6
2019-05-06T04:21:17.320Z,18.5
2019-05-06T04:22:19.181Z,18.6
2019-05-06T04:23:26.623Z,18.4
2019-05-06T04:24:28.754Z,18.5
2019-05-06T04:25:33.753Z,18.5
2019-05-06T04:26:36.359Z,18.4
2019-05-06T04:27:39.126Z,18.6
2019-05-06T04:28:45.532Z,18.5
2019-05-06T04:29:48.153Z,18.5
2019-05-06T04:30:50.516Z,18.5
2019-05-06T04:31:57.634Z,18.4
2019-05-06T04:33:00.049Z,18.5
2019-05-06T04:36:15.952Z,18.4
2019-05-06T04:37:18.106Z,18.5
2019-05-06T04:39:25.609Z,18.4
2019-05-06T04:40:28.360Z,18.4
2019-05-06T04:42:36.357Z,18.4
2019-05-06T04:43:38.496Z,18.5
2019-05-06T04:45:45.904Z,18.5
2019-05-06T04:46:48.910Z,18.4
2019-05-06T04:48:56.294Z,18.4
2019-05-06T04:49:59.403Z,18.4
2019-05-06T04:51:05.826Z,18.5
2019-05-06T04:52:08.539Z,18.5
2019-05-06T04:53:10.695Z,18.5
2019-05-06T04:54:16.639Z,18.5
2019-05-06T04:55:19.054Z,18.5
2019-05-06T04:56:25.473Z,18.6
2019-05-06T04:57:28.089Z,18.4
2019-05-06T04:58:33.257Z,18.5
2019-05-06T04:59:35.698Z,18.4
2019-05-06T05:00:38.137Z,18.5
2019-05-06T05:01:40.544Z,18.4
2019-05-06T05:02:47.434Z,18.5
2019-05-06T05:03:49.861Z,18.5
2019-05-06T05:04:56.274Z,18.4
2019-05-06T05:07:03.988Z,18.5
2019-05-06T05:08:06.392Z,18.5
2019-05-06T05:09:08.825Z,18.5
2019-05-06T05:10:15.867Z,18.4
2019-05-06T05:11:18.006Z,18.5
2019-05-06T05:12:25.520Z,18.5
2019-05-06T05:13:28.114Z,18.5
2019-05-06T05:14:32.652Z,18.4
2019-05-06T05:15:35.199Z,18.4
2019-05-06T05:16:37.796Z,18.4
2019-05-06T05:17:42.032Z,18.4
2019-05-06T05:18:44.520Z,18.4
2019-05-06T05:19:48.130Z,18.5
2019-05-06T05:20:50.286Z,18.4
2019-05-06T05:21:54.204Z,18.5
2019-05-06T05:22:56.360Z,18.4
2019-05-06T05:25:04.098Z,18.4
2019-05-06T05:26:06.250Z,18.4
2019-05-06T05:27:08.671Z,18.5
2019-05-06T05:28:15.292Z,18.5
2019-05-06T05:29:17.174Z,18.5
2019-05-06T05:30:19.324Z,18.5
2019-05-06T05:31:23.620Z,18.4
2019-05-06T05:32:27.255Z,18.4
2019-05-06T05:33:29.892Z,18.4
2019-05-06T05:35:42.976Z,18.4
2019-05-06T05:36:46.277Z,18.4
2019-05-06T05:37:48.694Z,18.4
2019-05-06T05:38:53.018Z,18.5
2019-05-06T05:39:55.126Z,18.4
2019-05-06T05:40:57.272Z,18.5
2019-05-06T05:41:59.430Z,18.4
2019-05-06T05:43:03.952Z,18.4
2019-05-06T05:44:06.094Z,18.4
2019-05-06T05:45:08.247Z,18.4
2019-05-06T05:47:15.658Z,18.4
2019-05-06T05:48:18.082Z,18.4
2019-05-06T05:50:25.643Z,18.4
2019-05-06T05:51:28.063Z,18.4
2019-05-06T05:53:35.474Z,18.3
2019-05-06T05:54:37.624Z,18.3
2019-05-06T05:55:39.957Z,18.4
2019-05-06T05:56:44.284Z,18.4
2019-05-06T05:57:46.700Z,18.4
2019-05-06T05:58:49.052Z,18.4
2019-05-06T05:59:53.377Z,18.4
2019-05-06T06:00:56.001Z,18.4
2019-05-06T06:01:58.458Z,18.4
2019-05-06T06:03:02.837Z,18.4
2019-05-06T06:04:08.644Z,18.4
2019-05-06T06:05:12.952Z,18.3
2019-05-06T06:06:15.020Z,18.4
2019-05-06T06:07:17.432Z,18.3
2019-05-06T06:09:25.464Z,18.3
2019-05-06T06:10:27.301Z,18.3
2019-05-06T06:11:32.585Z,18.3
2019-05-06T06:12:36.010Z,18.3
2019-05-06T06:13:38.482Z,18.5
2019-05-06T06:14:43.166Z,18.4
2019-05-06T06:15:46.316Z,18.4
2019-05-06T06:16:48.736Z,18.3
2019-05-06T06:17:52.516Z,18.4
2019-05-06T06:18:55.264Z,18.4
2019-05-06T06:19:57.417Z,18.3
2019-05-06T06:20:59.299Z,18.3
2019-05-06T06:22:05.246Z,18.3
2019-05-06T06:23:07.674Z,18.4
2019-05-06T06:24:10.036Z,18.3
2019-05-06T06:25:15.039Z,18.3
2019-05-06T06:26:18.678Z,18.3
2019-05-06T06:27:23.633Z,18.4
2019-05-06T06:28:25.529Z,18.4
2019-05-06T06:29:27.674Z,18.4
2019-05-06T06:30:30.112Z,18.3
2019-05-06T06:31:36.048Z,18.3
2019-05-06T06:32:38.472Z,18.4
2019-05-06T06:33:45.544Z,18.3
2019-05-06T06:34:47.874Z,18.4
2019-05-06T06:35:52.362Z,18.3
2019-05-06T06:36:54.786Z,18.4
2019-05-06T06:37:57.212Z,18.3
2019-05-06T06:40:05.202Z,18.4
2019-05-06T06:41:07.372Z,18.4
2019-05-06T06:42:09.236Z,18.3
2019-05-06T06:43:15.692Z,18.3
2019-05-06T06:44:18.139Z,18.3
2019-05-06T06:45:22.898Z,18.3
2019-05-06T06:46:27.052Z,18.4
2019-05-06T06:47:32.223Z,18.3
2019-05-06T06:48:34.644Z,18.3
2019-05-06T06:49:37.678Z,18.3
2019-05-06T06:50:40.029Z,18.3
2019-05-06T06:51:44.244Z,18.4
2019-05-06T06:52:46.738Z,18.3
2019-05-06T06:53:49.413Z,18.4
2019-05-06T06:54:56.044Z,18.4
2019-05-06T06:55:58.478Z,18.3
2019-05-06T06:58:07.992Z,18.4
2019-05-06T06:59:10.150Z,18.3
2019-05-06T07:00:14.883Z,18.3
2019-05-06T07:01:17.659Z,18.3
2019-05-06T07:02:19.995Z,18.3
2019-05-06T07:03:25.930Z,18.3
2019-05-06T07:04:28.356Z,18.3
2019-05-06T07:05:35.425Z,18.3
2019-05-06T07:06:38.818Z,18.3
2019-05-06T07:08:45.664Z,18.3
2019-05-06T07:09:48.264Z,18.3
2019-05-06T07:10:52.389Z,18.2
2019-05-06T07:11:55.856Z,18.3
2019-05-06T07:12:57.982Z,18.4
2019-05-06T07:15:05.390Z,18.3
2019-05-06T07:16:08.543Z,18.3
2019-05-06T07:17:14.967Z,18.2
2019-05-06T07:18:16.838Z,18.3
2019-05-06T07:19:19.008Z,18.3
2019-05-06T07:20:23.553Z,18.3
2019-05-06T07:21:25.870Z,18.3
2019-05-06T07:22:28.512Z,18.3
2019-05-06T07:24:35.627Z,18.3
2019-05-06T07:25:38.050Z,18.3
2019-05-06T07:26:42.072Z,18.3
2019-05-06T07:27:44.864Z,18.4
2019-05-06T07:28:47.282Z,18.3
2019-05-06T07:29:52.057Z,18.3
2019-05-06T07:30:55.203Z,18.3
2019-05-06T07:31:57.531Z,18.3
2019-05-06T07:34:05.084Z,18.3
2019-05-06T07:35:07.260Z,18.3
2019-05-06T07:36:09.420Z,18.3
2019-05-06T07:37:12.814Z,18.3
2019-05-06T07:38:15.248Z,18.3
2019-05-06T07:39:18.272Z,18.2
2019-05-06T07:40:23.107Z,18.3
2019-05-06T07:41:25.534Z,18.3
2019-05-06T07:42:27.958Z,18.3
2019-05-06T07:43:35.284Z,18.3
2019-05-06T07:44:37.713Z,18.3
2019-05-06T07:45:42.328Z,18.3
2019-05-06T07:46:44.793Z,18.3
2019-05-06T07:47:47.216Z,18.3
2019-05-06T07:48:51.751Z,18.3
2019-05-06T07:49:54.305Z,18.2
2019-05-06T07:50:56.435Z,18.3
2019-05-06T07:51:59.079Z,18.3
2019-05-06T07:53:05.674Z,18.3
2019-05-06T07:54:08.713Z,18.2
2019-05-06T07:55:15.321Z,18.3
2019-05-06T07:56:17.763Z,18.3
2019-05-06T07:57:22.433Z,18.3
2019-05-06T07:58:24.567Z,18.3
2019-05-06T07:59:26.714Z,18.4
2019-05-06T08:00:28.594Z,18.3
2019-05-06T08:01:32.818Z,18.3
2019-05-06T08:02:35.674Z,18.2
2019-05-06T08:03:38.085Z,18.3
2019-05-06T08:04:42.590Z,18.3
2019-05-06T08:06:52.187Z,18.3
2019-05-06T08:07:55.749Z,18.3
2019-05-06T08:08:58.158Z,18.2
2019-05-06T08:10:02.762Z,18.3
2019-05-06T08:11:04.631Z,18.2
2019-05-06T08:12:07.065Z,18.4
2019-05-06T08:13:09.494Z,18.2
2019-05-06T08:14:15.912Z,18.3
2019-05-06T08:15:18.367Z,18.3
2019-05-06T08:16:23.013Z,18.4
2019-05-06T08:17:24.889Z,18.2
2019-05-06T08:18:26.754Z,18.3
2019-05-06T08:19:28.905Z,18.2
2019-05-06T08:20:32.970Z,18.2
2019-05-06T08:21:35.680Z,18.2
2019-05-06T08:22:39.270Z,18.3
2019-05-06T08:23:43.638Z,18.3
2019-05-06T08:24:46.060Z,18.2
2019-05-06T08:25:48.317Z,18.3
2019-05-06T08:26:52.701Z,18.3
2019-05-06T08:27:54.870Z,18.3
2019-05-06T08:28:57.017Z,18.3
2019-05-06T08:29:59.440Z,18.3
2019-05-06T08:31:05.493Z,18.3
2019-05-06T08:32:09.132Z,18.3
2019-05-06T08:33:13.791Z,18.3
2019-05-06T08:34:16.226Z,18.3
2019-05-06T08:35:18.865Z,18.3
2019-05-06T08:36:23.105Z,18.2
2019-05-06T08:37:25.235Z,18.2
2019-05-06T08:38:27.573Z,18.2
2019-05-06T08:39:32.154Z,18.2
2019-05-06T08:40:34.802Z,18.2
2019-05-06T08:41:36.700Z,18.2
2019-05-06T08:42:38.848Z,18.3
2019-05-06T08:43:45.483Z,18.3
2019-05-06T08:44:48.246Z,18.3
2019-05-06T08:48:27.368Z,18.3
2019-05-06T08:49:31.931Z,18.2
2019-05-06T08:50:34.424Z,18.2
2019-05-06T08:51:36.844Z,18.3
2019-05-06T08:52:39.254Z,18.2
2019-05-06T08:53:43.931Z,18.2
2019-05-06T08:54:46.359Z,18.3
2019-05-06T08:55:48.714Z,18.2
2019-05-06T08:56:52.887Z,18.4
2019-05-06T08:57:55.324Z,18.3
2019-05-06T08:58:57.743Z,18.3
2019-05-06T09:00:00.243Z,18.3
2019-05-06T09:01:06.802Z,18.3
2019-05-06T09:02:09.580Z,18.3
2019-05-06T09:03:16.480Z,18.3
2019-05-06T09:04:19.104Z,18.3
2019-05-06T09:05:23.518Z,18.2
2019-05-06T09:07:32.563Z,18.2
2019-05-06T09:08:35.184Z,18.3
2019-05-06T09:09:37.346Z,18.3
2019-05-06T09:10:39.485Z,18.2
2019-05-06T09:11:43.937Z,18.3
2019-05-06T09:12:46.374Z,18.2
2019-05-06T09:13:48.793Z,18.3
2019-05-06T09:14:54.854Z,18.3
2019-05-06T09:15:57.004Z,18.3
2019-05-06T09:16:59.423Z,18.3
2019-05-06T09:18:04.470Z,18.3
2019-05-06T09:19:06.848Z,18.3
2019-05-06T09:20:09.789Z,18.2
2019-05-06T09:21:14.665Z,18.2
2019-05-06T09:22:16.840Z,18.3
2019-05-06T09:23:19.271Z,18.3
2019-05-06T09:24:25.694Z,18.4
2019-05-06T09:25:27.853Z,18.3
2019-05-06T09:26:32.254Z,18.2
2019-05-06T09:27:35.463Z,18.4
2019-05-06T09:28:37.877Z,18.3
2019-05-06T09:29:42.910Z,18.2
2019-05-06T09:30:45.473Z,18.4
2019-05-06T09:31:47.627Z,18.3
2019-05-06T09:32:51.965Z,18.2
2019-05-06T09:33:54.269Z,18.3
2019-05-06T09:34:56.681Z,18.2
2019-05-06T09:35:58.835Z,18.3
2019-05-06T09:38:06.243Z,18.3
2019-05-06T09:39:08.663Z,18.3
2019-05-06T09:40:13.194Z,18.3
2019-05-06T09:41:15.614Z,18.3
2019-05-06T09:42:18.044Z,18.3
2019-05-06T09:43:22.727Z,18.3
2019-05-06T09:44:25.366Z,18.3
2019-05-06T09:45:27.767Z,18.3
2019-05-06T09:47:35.175Z,18.3
2019-05-06T09:48:37.323Z,18.3
2019-05-06T09:49:39.472Z,18.3
2019-05-06T09:50:46.893Z,18.2
2019-05-06T09:51:49.321Z,18.4
2019-05-06T09:52:55.951Z,18.3
2019-05-06T09:55:03.900Z,18.3
2019-05-06T09:56:05.771Z,18.3
2019-05-06T09:57:07.923Z,18.3
2019-05-06T09:59:15.332Z,18.2
2019-05-06T10:00:17.782Z,18.3
2019-05-06T10:02:25.169Z,18.3
2019-05-06T10:03:27.589Z,18.3
2019-05-06T10:04:32.369Z,18.2
2019-05-06T10:05:35.096Z,18.3
2019-05-06T10:06:37.272Z,18.3
2019-05-06T10:07:39.741Z,18.3
2019-05-06T10:08:42.071Z,18.3
2019-05-06T10:09:44.492Z,18.3
2019-05-06T10:11:53.103Z,18.3
2019-05-06T10:12:55.254Z,18.3
2019-05-06T10:13:57.151Z,18.2
2019-05-06T10:14:59.583Z,18.2
2019-05-06T10:16:05.525Z,18.3
2019-05-06T10:17:07.960Z,18.2
2019-05-06T10:19:15.080Z,18.3
2019-05-06T10:20:17.529Z,18.2
2019-05-06T10:21:20.351Z,18.3
2019-05-06T10:22:25.155Z,18.2
2019-05-06T10:23:27.745Z,18.4
2019-05-06T10:24:32.240Z,18.2
2019-05-06T10:25:35.467Z,18.2
2019-05-06T10:26:37.881Z,18.3
2019-05-06T10:28:45.321Z,18.3
2019-05-06T10:29:47.729Z,18.3
2019-05-06T10:30:50.151Z,18.3
2019-05-06T10:31:52.997Z,18.3
2019-05-06T10:32:55.423Z,18.2
2019-05-06T10:33:58.483Z,18.2
2019-05-06T10:35:03.231Z,18.3
2019-05-06T10:36:05.373Z,18.2
2019-05-06T10:38:12.903Z,18.3
2019-05-06T10:39:14.783Z,18.2
2019-05-06T10:40:17.213Z,18.2
2019-05-06T10:41:19.369Z,18.2
2019-05-06T10:42:25.323Z,18.2
2019-05-06T10:43:27.492Z,18.3
2019-05-06T10:44:30.075Z,18.1
2019-05-06T10:45:36.019Z,18.2
2019-05-06T10:46:38.437Z,18.2
2019-05-06T10:47:42.859Z,18.2
2019-05-06T10:48:44.995Z,18.3
2019-05-06T10:49:47.411Z,18.3
2019-05-06T10:50:49.586Z,18.1
2019-05-06T10:51:54.005Z,18.3
2019-05-06T10:52:56.798Z,18.2
2019-05-06T10:53:59.230Z,18.2
2019-05-06T10:55:06.117Z,18.3
2019-05-06T10:56:08.533Z,18.3
2019-05-06T10:57:12.968Z,18.3
2019-05-06T10:58:15.112Z,18.2
2019-05-06T10:59:17.703Z,18.3
2019-05-06T11:00:19.328Z,18.2
2019-05-06T11:01:25.743Z,18.3
2019-05-06T11:02:28.171Z,18.3
2019-05-06T11:03:30.329Z,18.3
2019-05-06T11:04:34.468Z,18.3
2019-05-06T11:05:36.628Z,18.2
2019-05-06T11:06:39.101Z,18.3
2019-05-06T11:07:46.223Z,18.3
2019-05-06T11:08:48.384Z,18.3
2019-05-06T11:09:55.517Z,18.2
2019-05-06T11:12:04.521Z,18.3
2019-05-06T11:13:07.139Z,18.2
2019-05-06T11:14:09.565Z,18.1
2019-05-06T11:15:15.697Z,18.3
2019-05-06T11:16:18.270Z,18.3
2019-05-06T11:18:25.698Z,18.3
2019-05-06T11:19:27.873Z,18.2
2019-05-06T11:20:30.216Z,18.2
2019-05-06T11:21:36.757Z,18.2
2019-05-06T11:22:38.904Z,18.3
2019-05-06T11:23:42.392Z,18.1
2019-05-06T11:24:44.545Z,18.2
2019-05-06T11:25:46.970Z,18.2
2019-05-06T11:26:49.403Z,18.3
2019-05-06T11:27:55.341Z,18.2
2019-05-06T11:28:57.823Z,18.2
2019-05-06T11:30:01.891Z,18.2
2019-05-06T11:31:05.137Z,18.2
2019-05-06T11:32:13.276Z,18.2
2019-05-06T11:33:15.689Z,18.3
2019-05-06T11:34:18.121Z,18.2
2019-05-06T11:35:25.012Z,18.2
2019-05-06T11:36:27.674Z,18.2
2019-05-06T11:38:35.093Z,18.2
2019-05-06T11:39:37.524Z,18.3
2019-05-06T11:42:52.377Z,18.2
2019-05-06T11:43:55.374Z,18.2
2019-05-06T11:44:57.805Z,18.2
2019-05-06T11:45:59.983Z,18.2
2019-05-06T11:47:03.993Z,18.2
2019-05-06T11:48:06.130Z,18.2
2019-05-06T11:49:08.585Z,18.2
2019-05-06T11:50:16.167Z,18.3
2019-05-06T11:51:18.792Z,18.3
2019-05-06T11:52:23.138Z,18.3
2019-05-06T11:53:25.363Z,18.2
2019-05-06T11:54:28.444Z,18.2
2019-05-06T11:58:46.606Z,18.2
2019-05-06T11:59:49.737Z,18.3
2019-05-06T12:00:55.703Z,18.2
2019-05-06T12:01:58.116Z,18.2
2019-05-06T12:03:02.804Z,18.3
2019-05-06T12:04:05.221Z,18.2
2019-05-06T12:05:07.644Z,18.3
2019-05-06T12:06:09.995Z,18.2
2019-05-06T12:07:16.678Z,18.2
2019-05-06T12:08:19.133Z,18.2
2019-05-06T12:09:23.884Z,18.3
2019-05-06T12:10:25.754Z,18.2
2019-05-06T12:11:27.909Z,18.2
2019-05-06T12:12:30.903Z,18.2
2019-05-06T12:13:38.037Z,18.3
2019-05-06T12:14:39.777Z,18.2
2019-05-06T12:15:45.647Z,18.3
2019-05-06T12:16:47.865Z,18.2
2019-05-06T12:17:50.058Z,18.3
2019-05-06T12:20:03.544Z,18.2
2019-05-06T12:23:16.329Z,18.2
2019-05-06T12:24:18.484Z,18.2
2019-05-06T12:26:25.892Z,18.2
2019-05-06T12:27:28.040Z,18.2
2019-05-06T12:28:32.536Z,18.3
2019-05-06T12:31:45.657Z,18.2
2019-05-06T12:32:48.079Z,18.2
2019-05-06T12:33:52.942Z,18.2
2019-05-06T12:34:55.964Z,18.2
2019-05-06T12:35:58.379Z,18.2
2019-05-06T12:37:05.474Z,18.2
2019-05-06T12:40:17.850Z,18.2
2019-05-06T12:41:22.898Z,18.3
2019-05-06T12:42:25.735Z,18.2
2019-05-06T12:43:28.333Z,18.2
2019-05-06T12:44:32.827Z,18.2
2019-05-06T12:45:35.284Z,18.3
2019-05-06T12:46:37.635Z,18.2
2019-05-06T12:47:42.488Z,18.2
2019-05-06T12:48:45.339Z,18.3
2019-05-06T12:49:47.496Z,18.3
2019-05-06T12:50:52.330Z,18.3
2019-05-06T12:51:55.373Z,18.2
2019-05-06T12:52:58.487Z,18.3
2019-05-06T12:56:12.697Z,18.1
2019-05-06T12:57:15.117Z,18.2
2019-05-06T12:59:22.907Z,18.3
2019-05-06T13:00:25.706Z,18.3
2019-05-06T13:01:28.147Z,18.3
2019-05-06T13:03:35.768Z,18.3
2019-05-06T13:05:43.399Z,18.3
2019-05-06T13:06:46.945Z,18.2
2019-05-06T13:07:49.414Z,18.2
2019-05-06T13:11:05.788Z,18.2
2019-05-06T13:12:08.213Z,18.3
2019-05-06T13:14:15.631Z,18.3
2019-05-06T13:15:18.053Z,18.3
2019-05-06T13:17:25.453Z,18.2
2019-05-06T13:18:28.203Z,18.3
2019-05-06T13:19:32.805Z,18.3
2019-05-06T13:20:35.224Z,18.3
2019-05-06T13:21:37.703Z,18.3
2019-05-06T13:22:40.604Z,18.1
2019-05-06T13:23:42.765Z,18.1
2019-05-06T13:24:45.378Z,18.2
2019-05-06T13:25:47.829Z,18.3
2019-05-06T13:26:52.596Z,18.3
2019-05-06T13:27:55.153Z,18.2
2019-05-06T13:28:57.318Z,18.2
2019-05-06T13:29:59.473Z,18.2
2019-05-06T13:32:10.119Z,18.3
2019-05-06T13:33:14.795Z,18.1
2019-05-06T13:34:18.148Z,18.3
2019-05-06T13:35:25.852Z,18.3
2019-05-06T13:36:28.445Z,18.2
2019-05-06T13:38:36.467Z,18.2
2019-05-06T13:39:38.992Z,18.2
2019-05-06T13:42:55.703Z,18.2
2019-05-06T13:43:58.141Z,18.2
2019-05-06T13:46:07.678Z,18.3
2019-05-06T13:48:15.165Z,18.3
2019-05-06T13:49:17.596Z,18.2
2019-05-06T13:50:20.023Z,18.3
2019-05-06T13:51:25.965Z,18.2
2019-05-06T13:52:28.112Z,18.3
2019-05-06T13:55:05.556Z,18.2
2019-05-06T13:56:07.994Z,18.2
2019-05-06T13:58:15.413Z,18.2
2019-05-06T13:59:17.843Z,18.2
2019-05-06T14:00:22.215Z,18.2
2019-05-06T14:01:25.165Z,18.2
2019-05-06T14:02:27.337Z,18.2
2019-05-06T14:03:29.495Z,18.3
2019-05-06T14:04:34.746Z,18.2
2019-05-06T14:05:37.173Z,18.2
2019-05-06T14:06:39.326Z,18.2
2019-05-06T14:07:46.424Z,18.2
2019-05-06T14:08:48.914Z,18.2
2019-05-06T14:09:55.814Z,18.2
2019-05-06T14:11:02.761Z,18.2
2019-05-06T14:12:05.551Z,18.3
2019-05-06T14:13:07.871Z,18.3
2019-05-06T14:15:15.010Z,18.2
2019-05-06T14:16:17.620Z,18.2
2019-05-06T14:17:22.103Z,18.2
2019-05-06T14:18:25.342Z,18.2
2019-05-06T14:19:27.201Z,18.2
2019-05-06T14:20:29.336Z,18.2
2019-05-06T14:21:32.957Z,18.2
2019-05-06T14:22:35.561Z,18.2
2019-05-06T14:23:38.002Z,18.3
2019-05-06T14:24:40.218Z,18.2
2019-05-06T14:25:46.238Z,18.3
2019-05-06T14:26:48.665Z,18.2
2019-05-06T14:27:53.011Z,18.3
2019-05-06T14:28:55.172Z,18.3
2019-05-06T14:29:57.595Z,18.3
2019-05-06T14:31:00.018Z,18.3
2019-05-06T14:32:06.139Z,18.3
2019-05-06T14:33:08.301Z,18.2
2019-05-06T14:35:15.486Z,18.2
2019-05-06T14:36:17.917Z,18.1
2019-05-06T14:38:25.094Z,18.2
2019-05-06T14:40:33.663Z,18.2
2019-05-06T14:41:36.479Z,18.2
2019-05-06T14:42:38.627Z,18.2
2019-05-06T14:43:45.517Z,18.2
2019-05-06T14:44:49.370Z,18.3
2019-05-06T14:45:53.528Z,18.3
2019-05-06T14:46:55.954Z,18.2
2019-05-06T14:47:58.385Z,18.2
2019-05-06T14:50:05.800Z,18.3
2019-05-06T14:51:07.455Z,18.1
2019-05-06T14:52:09.874Z,18.2
2019-05-06T14:53:15.973Z,18.2
2019-05-06T14:54:18.941Z,18.3
2019-05-06T14:55:23.533Z,18.3
2019-05-06T14:56:25.701Z,18.3
2019-05-06T14:58:35.226Z,18.2
2019-05-06T14:59:37.654Z,18.2
2019-05-06T15:00:39.814Z,18.3
2019-05-06T15:01:46.305Z,18.2
2019-05-06T15:02:48.738Z,18.2
2019-05-06T15:03:53.543Z,18.3
2019-05-06T15:04:55.670Z,18.3
2019-05-06T15:05:58.113Z,18.3
2019-05-06T15:07:02.687Z,18.3
2019-05-06T15:08:05.273Z,18.2
2019-05-06T15:09:07.432Z,18.3
2019-05-06T15:11:14.289Z,18.3
2019-05-06T15:12:17.305Z,18.3
2019-05-06T15:13:19.371Z,18.2
2019-05-06T15:14:25.791Z,18.2
2019-05-06T15:15:27.938Z,18.2
2019-05-06T15:16:30.367Z,18.2
2019-05-06T15:17:37.423Z,18.2
2019-05-06T15:18:42.140Z,18.3
2019-05-06T15:19:45.030Z,18.3
2019-05-06T15:20:47.469Z,18.2
2019-05-06T15:21:49.633Z,18.2
2019-05-06T15:22:56.071Z,18.3
2019-05-06T15:23:58.225Z,18.2
2019-05-06T15:26:05.095Z,18.2
2019-05-06T15:27:07.271Z,18.1
2019-05-06T15:28:09.137Z,18.2
2019-05-06T15:29:15.873Z,18.3
2019-05-06T15:30:18.055Z,18.3
2019-05-06T15:31:19.955Z,18.2
2019-05-06T15:32:25.894Z,18.2
2019-05-06T15:33:28.528Z,18.2
2019-05-06T15:35:35.965Z,18.3
2019-05-06T15:36:38.994Z,18.2
2019-05-06T15:37:42.830Z,18.2
2019-05-06T15:38:45.355Z,18.3
2019-05-06T15:39:47.341Z,18.2
2019-05-06T15:40:52.225Z,18.2
2019-05-06T15:41:54.949Z,18.2
2019-05-06T15:42:57.092Z,18.2
2019-05-06T15:43:59.537Z,18.3
2019-05-06T15:45:05.955Z,18.3